createdAt,value
2019-03-18T00:01:08.113Z,8.37
2019-03-18T00:03:37.144Z,3.00
2019-03-18T00:06:06.174Z,2.47
2019-03-18T00:08:35.136Z,7.07
2019-03-18T00:11:04.159Z,3.20
2019-03-18T00:13:33.120Z,3.60
2019-03-18T00:16:02.085Z,5.33
2019-03-18T00:18:31.049Z,3.00
2019-03-18T00:21:00.073Z,3.77
2019-03-18T00:23:29.114Z,3.83
2019-03-18T00:25:58.171Z,6.57
2019-03-18T00:28:27.218Z,2.73
2019-03-18T00:30:56.237Z,2.50
2019-03-18T00:33:25.205Z,2.90
2019-03-18T00:35:54.233Z,4.03
2019-03-18T00:38:23.183Z,7.50
2019-03-18T00:40:52.077Z,3.50
2019-03-18T00:43:21.033Z,3.87
2019-03-18T00:45:50.077Z,3.90
2019-03-18T00:48:19.028Z,2.43
2019-03-18T00:50:47.998Z,2.70
2019-03-18T00:53:16.945Z,3.63
2019-03-18T00:55:45.921Z,2.77
2019-03-18T00:58:14.864Z,4.23
2019-03-18T01:00:43.916Z,1.80
2019-03-18T01:03:12.856Z,2.67
2019-03-18T01:05:41.889Z,2.57
2019-03-18T01:08:10.920Z,3.63
2019-03-18T01:10:39.951Z,4.07
2019-03-18T01:13:08.989Z,3.63
2019-03-18T01:15:38.013Z,2.70
2019-03-18T01:18:06.973Z,2.20
2019-03-18T01:20:35.925Z,3.20
2019-03-18T01:23:04.899Z,2.17
2019-03-18T01:25:33.785Z,3.30
2019-03-18T01:28:02.762Z,3.80
2019-03-18T01:30:31.693Z,2.60
2019-03-18T01:33:00.657Z,1.77
2019-03-18T01:35:29.529Z,2.73
2019-03-18T01:37:58.584Z,1.97
2019-03-18T01:40:27.601Z,2.43
2019-03-18T01:42:56.570Z,2.10
2019-03-18T01:45:25.611Z,2.23
2019-03-18T01:47:54.476Z,2.10
2019-03-18T01:50:23.416Z,4.47
2019-03-18T01:52:52.287Z,2.57
2019-03-18T01:55:21.235Z,2.67
2019-03-18T01:57:50.160Z,1.80
2019-03-18T02:00:19.163Z,2.47
2019-03-18T02:02:48.057Z,4.00
2019-03-18T02:05:17.066Z,2.17
2019-03-18T02:07:46.025Z,3.00
2019-03-18T02:10:15.068Z,1.90
2019-03-18T02:12:44.093Z,2.10
2019-03-18T02:15:13.257Z,2.23
2019-03-18T02:17:42.285Z,2.30
2019-03-18T02:20:11.457Z,2.10
2019-03-18T02:22:40.448Z,3.40
2019-03-18T02:25:09.717Z,2.10
2019-03-18T02:27:39.154Z,2.30
2019-03-18T02:30:08.736Z,2.10
2019-03-18T02:32:37.598Z,3.33
2019-03-18T02:35:06.841Z,2.40
2019-03-18T02:37:35.805Z,2.27
2019-03-18T02:40:04.986Z,2.60
2019-03-18T02:42:34.018Z,1.70
2019-03-18T02:45:02.993Z,3.50
2019-03-18T02:47:31.949Z,5.33
2019-03-18T02:50:00.900Z,2.30
2019-03-18T02:52:30.009Z,1.80
2019-03-18T02:54:58.878Z,2.30
2019-03-18T02:57:27.850Z,3.17
2019-03-18T02:59:56.805Z,1.73
2019-03-18T03:02:25.769Z,1.90
2019-03-18T03:04:54.729Z,2.47
2019-03-18T03:07:23.776Z,1.93
2019-03-18T03:09:52.833Z,1.90
2019-03-18T03:12:21.861Z,2.17
2019-03-18T03:14:50.774Z,2.07
2019-03-18T03:17:21.647Z,1.77
2019-03-18T03:19:50.537Z,1.50
2019-03-18T03:22:19.525Z,1.77
2019-03-18T03:24:48.681Z,1.70
2019-03-18T03:27:17.696Z,1.77
2019-03-18T03:29:46.709Z,2.17
2019-03-18T03:32:15.611Z,1.60
2019-03-18T03:34:44.547Z,2.47
2019-03-18T03:37:13.656Z,1.80
2019-03-18T03:39:42.685Z,2.03
2019-03-18T03:42:11.633Z,1.80
2019-03-18T03:44:40.602Z,1.60
2019-03-18T03:47:09.556Z,2.40
2019-03-18T03:49:38.542Z,2.13
2019-03-18T03:52:07.593Z,1.70
2019-03-18T03:54:36.674Z,1.40
2019-03-18T03:57:05.874Z,1.50
2019-03-18T03:59:34.912Z,2.17
2019-03-18T04:02:03.923Z,2.13
2019-03-18T04:04:32.981Z,1.93
2019-03-18T04:07:01.983Z,1.57
2019-03-18T04:09:31.021Z,3.03
2019-03-18T04:11:59.955Z,1.97
2019-03-18T04:14:28.993Z,2.13
2019-03-18T04:17:02.485Z,1.73
2019-03-18T04:19:28.759Z,1.97
2019-03-18T04:21:57.789Z,1.50
2019-03-18T04:24:26.818Z,1.70
2019-03-18T04:26:55.800Z,1.53
2019-03-18T04:29:24.824Z,1.60
2019-03-18T04:31:53.713Z,2.10
2019-03-18T04:34:22.662Z,1.63
2019-03-18T04:36:51.694Z,2.33
2019-03-18T04:39:20.634Z,2.43
2019-03-18T04:41:49.529Z,2.40
2019-03-18T04:44:18.481Z,1.53
2019-03-18T04:46:47.441Z,1.50
2019-03-18T04:49:22.593Z,1.47
2019-03-18T04:51:51.631Z,2.27
2019-03-18T04:54:20.640Z,2.07
2019-03-18T04:56:49.721Z,2.47
2019-03-18T04:59:18.752Z,4.30
2019-03-18T05:01:47.817Z,1.77
2019-03-18T05:04:16.868Z,1.77
2019-03-18T05:06:45.938Z,1.80
2019-03-18T05:09:14.907Z,1.43
2019-03-18T05:11:43.973Z,2.03
2019-03-18T05:14:13.013Z,1.60
2019-03-18T05:16:42.073Z,1.37
2019-03-18T05:19:11.146Z,1.90
2019-03-18T05:21:40.187Z,2.13
2019-03-18T05:24:09.275Z,1.50
2019-03-18T05:26:38.332Z,1.50
2019-03-18T05:29:07.388Z,1.50
2019-03-18T05:31:36.432Z,1.60
2019-03-18T05:34:05.491Z,1.50
2019-03-18T05:36:34.516Z,1.37
2019-03-18T05:39:04.264Z,1.47
2019-03-18T05:41:33.208Z,3.30
2019-03-18T05:44:02.300Z,2.60
2019-03-18T05:46:31.348Z,1.50
2019-03-18T05:49:00.412Z,1.50
2019-03-18T05:51:29.372Z,1.87
2019-03-18T05:53:58.433Z,1.50
2019-03-18T05:56:27.472Z,1.77
2019-03-18T05:58:56.560Z,1.40
2019-03-18T06:01:25.651Z,1.40
2019-03-18T06:03:54.701Z,1.60
2019-03-18T06:06:23.779Z,1.80
2019-03-18T06:08:52.829Z,1.43
2019-03-18T06:11:21.813Z,1.80
2019-03-18T06:13:50.778Z,2.07
2019-03-18T06:16:19.817Z,1.70
2019-03-18T06:18:48.869Z,1.83
2019-03-18T06:21:17.943Z,1.60
2019-03-18T06:23:47.009Z,1.63
2019-03-18T06:26:16.073Z,1.60
2019-03-18T06:28:46.929Z,1.40
2019-03-18T06:31:15.997Z,1.63
2019-03-18T06:33:45.130Z,1.80
2019-03-18T06:36:14.196Z,1.60
2019-03-18T06:38:43.134Z,1.80
2019-03-18T06:41:12.183Z,1.30
2019-03-18T06:43:41.308Z,2.10
2019-03-18T06:46:10.269Z,1.30
2019-03-18T06:48:39.320Z,1.60
2019-03-18T06:51:08.351Z,1.43
2019-03-18T06:53:40.064Z,1.50
2019-03-18T06:56:08.009Z,1.77
2019-03-18T06:58:37.064Z,1.90
2019-03-18T07:01:06.120Z,1.80
2019-03-18T07:03:35.177Z,1.87
2019-03-18T07:06:04.258Z,1.90
2019-03-18T07:08:33.216Z,1.40
2019-03-18T07:11:02.189Z,2.30
2019-03-18T07:13:31.250Z,1.70
2019-03-18T07:16:00.309Z,1.50
2019-03-18T07:18:29.375Z,3.20
2019-03-18T07:20:58.429Z,1.70
2019-03-18T07:23:27.561Z,11.87
2019-03-18T07:25:56.649Z,48.47
2019-03-18T07:28:25.742Z,96.67
2019-03-18T07:30:54.784Z,91.17
2019-03-18T07:33:23.865Z,95.97
2019-03-18T07:35:52.949Z,108.57
2019-03-18T07:38:22.017Z,111.80
2019-03-18T07:40:51.090Z,119.23
2019-03-18T07:43:20.154Z,92.03
2019-03-18T07:45:49.233Z,132.43
2019-03-18T07:48:29.981Z,96.40
2019-03-18T07:50:49.099Z,95.27
2019-03-18T07:53:18.397Z,99.50
2019-03-18T07:55:47.601Z,119.07
2019-03-18T07:58:16.678Z,95.60
2019-03-18T08:00:45.815Z,98.63
2019-03-18T08:03:15.018Z,106.30
2019-03-18T08:05:44.082Z,90.90
2019-03-18T08:08:13.128Z,81.67
2019-03-18T08:10:42.194Z,71.37
2019-03-18T08:13:11.289Z,77.63
2019-03-18T08:15:40.335Z,68.70
2019-03-18T08:18:09.395Z,69.70
2019-03-18T08:20:38.471Z,73.03
2019-03-18T08:23:07.517Z,67.37
2019-03-18T08:25:36.588Z,59.03
2019-03-18T08:28:05.638Z,67.00
2019-03-18T08:30:34.715Z,60.23
2019-03-18T08:33:03.836Z,58.77
2019-03-18T08:35:32.905Z,65.47
2019-03-18T08:38:01.957Z,51.53
2019-03-18T08:40:31.025Z,63.67
2019-03-18T08:43:00.222Z,46.70
2019-03-18T08:45:29.290Z,42.47
2019-03-18T08:47:58.358Z,36.37
2019-03-18T08:50:27.424Z,52.37
2019-03-18T08:52:56.492Z,45.67
2019-03-18T08:55:25.545Z,45.53
2019-03-18T08:57:54.608Z,44.87
2019-03-18T09:00:23.765Z,34.30
2019-03-18T09:02:52.815Z,43.27
2019-03-18T09:05:21.869Z,46.57
2019-03-18T09:07:50.949Z,39.97
2019-03-18T09:10:20.010Z,42.43
2019-03-18T09:12:49.082Z,43.27
2019-03-18T09:15:18.140Z,39.30
2019-03-18T09:17:47.202Z,35.13
2019-03-18T09:20:16.272Z,35.47
2019-03-18T09:22:45.334Z,34.20
2019-03-18T09:25:14.521Z,35.23
2019-03-18T09:27:43.561Z,37.87
2019-03-18T09:30:13.238Z,40.63
2019-03-18T09:32:42.295Z,28.47
2019-03-18T09:35:11.481Z,40.73
2019-03-18T09:37:40.538Z,29.40
2019-03-18T09:40:09.843Z,31.20
2019-03-18T09:42:38.949Z,33.13
2019-03-18T09:45:08.431Z,29.70
2019-03-18T09:47:37.482Z,30.87
2019-03-18T09:50:07.013Z,35.03
2019-03-18T09:52:36.087Z,24.40
2019-03-18T09:55:05.185Z,26.97
2019-03-18T09:57:34.278Z,31.07
2019-03-18T10:00:03.338Z,27.90
2019-03-18T10:02:32.321Z,25.73
2019-03-18T10:05:01.365Z,20.53
2019-03-18T10:07:30.421Z,29.20
2019-03-18T10:09:59.469Z,23.47
2019-03-18T10:12:28.545Z,24.50
2019-03-18T10:14:57.605Z,22.83
2019-03-18T10:17:26.676Z,21.20
2019-03-18T10:19:55.731Z,24.50
2019-03-18T10:22:24.684Z,24.20
2019-03-18T10:24:53.748Z,21.30
2019-03-18T10:27:22.803Z,25.57
2019-03-18T10:29:51.866Z,19.50
2019-03-18T10:32:20.970Z,25.57
2019-03-18T10:34:50.040Z,22.90
2019-03-18T10:37:19.115Z,19.03
2019-03-18T10:39:48.193Z,26.03
2019-03-18T10:42:17.224Z,21.83
2019-03-18T10:44:46.299Z,19.43
2019-03-18T10:47:15.344Z,19.37
2019-03-18T10:49:46.279Z,16.77
2019-03-18T10:52:15.098Z,17.30
2019-03-18T10:54:44.189Z,18.03
2019-03-18T10:57:13.264Z,17.67
2019-03-18T10:59:42.301Z,21.37
2019-03-18T11:02:11.370Z,14.17
2019-03-18T11:04:40.342Z,16.70
2019-03-18T11:07:09.414Z,15.50
2019-03-18T11:09:38.556Z,19.87
2019-03-18T11:12:07.618Z,14.83
2019-03-18T11:14:36.656Z,16.07
2019-03-18T11:17:05.721Z,13.70
2019-03-18T11:19:34.769Z,14.30
2019-03-18T11:22:03.837Z,15.43
2019-03-18T11:24:32.907Z,18.03
2019-03-18T11:27:01.977Z,16.07
2019-03-18T11:29:31.020Z,20.80
2019-03-18T11:32:00.067Z,21.43
2019-03-18T11:34:29.130Z,16.27
2019-03-18T11:36:58.281Z,15.73
2019-03-18T11:39:27.337Z,15.03
2019-03-18T11:41:56.422Z,11.40
2019-03-18T11:44:25.501Z,15.17
2019-03-18T11:46:54.575Z,11.40
2019-03-18T11:49:23.532Z,18.10
2019-03-18T11:51:52.585Z,12.73
2019-03-18T11:54:21.680Z,15.53
2019-03-18T11:56:50.965Z,13.80
2019-03-18T11:59:21.122Z,10.57
2019-03-18T12:01:50.407Z,12.57
2019-03-18T12:04:19.481Z,11.00
2019-03-18T12:06:48.538Z,9.93
2019-03-18T12:09:17.618Z,11.97
2019-03-18T12:11:46.718Z,12.80
2019-03-18T12:14:15.652Z,10.87
2019-03-18T12:16:44.716Z,7.17
2019-03-18T12:19:13.732Z,9.93
2019-03-18T12:21:42.770Z,15.87
2019-03-18T12:24:11.927Z,12.87
2019-03-18T12:26:40.995Z,14.00
2019-03-18T12:29:10.056Z,11.10
2019-03-18T12:31:39.126Z,9.93
2019-03-18T12:34:08.161Z,11.07
2019-03-18T12:36:37.217Z,11.53
2019-03-18T12:39:06.828Z,10.87
2019-03-18T12:41:35.899Z,13.40
2019-03-18T12:44:05.158Z,11.40
2019-03-18T12:46:34.217Z,8.20
2019-03-18T12:49:03.374Z,12.33
2019-03-18T12:51:32.441Z,11.77
2019-03-18T12:54:01.469Z,10.13
2019-03-18T12:56:30.433Z,10.63
2019-03-18T12:58:59.460Z,9.40
2019-03-18T13:01:29.930Z,7.40
2019-03-18T13:03:59.115Z,11.63
2019-03-18T13:06:28.061Z,6.83
2019-03-18T13:08:57.106Z,9.10
2019-03-18T13:11:26.165Z,8.30
2019-03-18T13:13:55.235Z,7.60
2019-03-18T13:16:24.258Z,10.73
2019-03-18T13:18:53.323Z,8.33
2019-03-18T13:21:22.374Z,8.33
2019-03-18T13:23:51.461Z,8.40
2019-03-18T13:26:20.521Z,12.27
2019-03-18T13:28:49.553Z,7.87
2019-03-18T13:31:18.609Z,9.03
2019-03-18T13:33:47.661Z,8.13
2019-03-18T13:36:16.709Z,8.33
2019-03-18T13:38:45.762Z,6.13
2019-03-18T13:41:14.834Z,8.63
2019-03-18T13:43:43.893Z,11.23
2019-03-18T13:46:12.961Z,7.23
2019-03-18T13:48:42.015Z,6.50
2019-03-18T13:51:20.315Z,8.53
2019-03-18T13:53:41.847Z,6.67
2019-03-18T13:56:10.919Z,7.30
2019-03-18T13:58:39.953Z,5.93
2019-03-18T14:01:08.982Z,7.13
2019-03-18T14:03:37.952Z,6.37
2019-03-18T14:06:06.990Z,6.57
2019-03-18T14:08:36.057Z,9.73
2019-03-18T14:11:05.101Z,8.40
2019-03-18T14:13:34.175Z,5.27
2019-03-18T14:16:03.321Z,7.20
2019-03-18T14:18:32.393Z,6.20
2019-03-18T14:21:01.461Z,5.37
2019-03-18T14:23:30.546Z,5.70
2019-03-18T14:25:59.597Z,7.00
2019-03-18T14:28:28.679Z,5.73
2019-03-18T14:30:57.616Z,6.90
2019-03-18T14:33:26.633Z,4.33
2019-03-18T14:35:55.564Z,5.03
2019-03-18T14:38:24.440Z,6.80
2019-03-18T14:40:53.498Z,4.23
2019-03-18T14:43:22.551Z,8.10
2019-03-18T14:45:51.617Z,4.90
2019-03-18T14:48:20.484Z,8.23
2019-03-18T14:50:49.446Z,6.63
2019-03-18T14:53:18.563Z,6.90
2019-03-18T14:55:47.587Z,5.90
2019-03-18T14:58:16.525Z,5.13
2019-03-18T15:00:45.577Z,4.80
2019-03-18T15:03:14.619Z,6.43
2019-03-18T15:05:43.700Z,6.20
2019-03-18T15:08:12.755Z,5.70
2019-03-18T15:10:41.825Z,6.67
2019-03-18T15:13:10.886Z,5.10
2019-03-18T15:15:39.932Z,4.43
2019-03-18T15:18:08.990Z,4.33
2019-03-18T15:20:38.045Z,5.60
2019-03-18T15:23:07.110Z,6.87
2019-03-18T15:25:36.186Z,4.50
2019-03-18T15:28:05.515Z,5.23
2019-03-18T15:30:34.673Z,4.03
2019-03-18T15:33:03.823Z,4.73
2019-03-18T15:35:32.965Z,5.07
2019-03-18T15:38:02.039Z,5.77
2019-03-18T15:40:31.172Z,4.50
2019-03-18T15:43:00.249Z,4.63
2019-03-18T15:45:29.293Z,4.77
2019-03-18T15:47:58.360Z,4.20
2019-03-18T15:50:27.717Z,5.20
2019-03-18T15:52:56.780Z,4.90
2019-03-18T15:55:25.812Z,4.73
2019-03-18T15:57:54.897Z,4.40
2019-03-18T16:00:23.990Z,5.50
2019-03-18T16:02:53.055Z,6.90
2019-03-18T16:05:22.114Z,4.20
2019-03-18T16:07:51.197Z,3.43
2019-03-18T16:10:20.471Z,3.90
2019-03-18T16:12:49.522Z,5.43
2019-03-18T16:15:19.006Z,3.10
2019-03-18T16:17:48.162Z,3.30
2019-03-18T16:20:17.323Z,4.53
2019-03-18T16:22:46.386Z,5.30
2019-03-18T16:25:15.462Z,4.20
2019-03-18T16:27:44.511Z,3.63
2019-03-18T16:30:14.457Z,3.50
2019-03-18T16:32:43.616Z,5.10
2019-03-18T16:35:15.670Z,3.83
2019-03-18T16:37:43.941Z,4.20
2019-03-18T16:40:13.277Z,4.70
2019-03-18T16:42:42.672Z,4.50
2019-03-18T16:45:12.815Z,2.80
2019-03-18T16:47:41.876Z,2.90
2019-03-18T16:50:12.737Z,5.20
2019-03-18T16:52:41.777Z,3.13
2019-03-18T16:55:11.138Z,2.77
2019-03-18T16:57:40.198Z,4.10
2019-03-18T17:00:12.378Z,4.73
2019-03-18T17:02:41.444Z,4.20
2019-03-18T17:05:10.705Z,2.70
2019-03-18T17:07:39.790Z,2.50
2019-03-18T17:10:09.141Z,3.60
2019-03-18T17:12:39.077Z,3.40
2019-03-18T17:15:08.788Z,4.43
2019-03-18T17:17:37.832Z,3.47
2019-03-18T17:20:08.111Z,3.30
2019-03-18T17:22:48.165Z,2.70
2019-03-18T17:25:10.085Z,3.00
2019-03-18T17:27:39.181Z,3.07
2019-03-18T17:30:11.549Z,3.20
2019-03-18T17:32:40.602Z,3.30
2019-03-18T17:35:09.670Z,2.40
2019-03-18T17:37:38.731Z,4.03
2019-03-18T17:40:08.645Z,4.10
2019-03-18T17:42:37.689Z,3.13
2019-03-18T17:45:07.774Z,2.67
2019-03-18T17:47:36.753Z,3.87
2019-03-18T17:50:06.337Z,3.43
2019-03-18T17:52:35.433Z,2.60
2019-03-18T17:55:04.715Z,3.37
2019-03-18T17:57:33.786Z,3.10
2019-03-18T18:00:02.928Z,3.57
2019-03-18T18:02:31.982Z,2.33
2019-03-18T18:05:03.179Z,3.03
2019-03-18T18:07:31.830Z,2.33
2019-03-18T18:10:00.871Z,3.67
2019-03-18T18:12:29.939Z,3.40
2019-03-18T18:14:59.134Z,3.03
2019-03-18T18:17:28.341Z,3.00
2019-03-18T18:19:57.389Z,2.70
2019-03-18T18:22:26.483Z,4.63
2019-03-18T18:24:55.549Z,3.47
2019-03-18T18:27:24.602Z,3.33
2019-03-18T18:29:53.593Z,2.57
2019-03-18T18:32:22.646Z,2.50
2019-03-18T18:34:51.721Z,2.70
2019-03-18T18:37:20.790Z,2.47
2019-03-18T18:39:49.867Z,4.13
2019-03-18T18:42:18.913Z,3.43
2019-03-18T18:44:47.978Z,4.43
2019-03-18T18:47:17.025Z,2.10
2019-03-18T18:49:46.061Z,2.60
2019-03-18T18:52:15.155Z,2.17
2019-03-18T18:54:44.278Z,1.87
2019-03-18T18:57:13.354Z,3.20
2019-03-18T18:59:42.401Z,2.13
2019-03-18T19:02:11.481Z,3.90
2019-03-18T19:04:40.548Z,2.43
2019-03-18T19:07:09.617Z,2.83
2019-03-18T19:09:38.740Z,1.90
2019-03-18T19:12:07.981Z,2.83
2019-03-18T19:14:37.054Z,3.63
2019-03-18T19:17:06.189Z,3.07
2019-03-18T19:19:35.282Z,3.03
2019-03-18T19:22:04.880Z,2.70
2019-03-18T19:24:33.944Z,2.40
2019-03-18T19:27:03.019Z,2.60
2019-03-18T19:29:32.065Z,2.80
2019-03-18T19:32:01.120Z,2.40
2019-03-18T19:34:30.172Z,2.40
2019-03-18T19:36:59.249Z,2.83
2019-03-18T19:39:28.306Z,3.07
2019-03-18T19:41:57.408Z,2.97
2019-03-18T19:44:26.454Z,6.53
2019-03-18T19:46:55.531Z,2.20
2019-03-18T19:49:24.593Z,3.43
2019-03-18T19:51:53.830Z,2.10
2019-03-18T19:54:22.813Z,3.50
2019-03-18T19:56:52.285Z,2.67
2019-03-18T19:59:22.773Z,2.90
2019-03-18T20:01:52.573Z,3.60
2019-03-18T20:04:22.885Z,2.30
2019-03-18T20:06:52.956Z,2.30
2019-03-18T20:09:23.046Z,5.17
2019-03-18T20:11:53.111Z,3.00
2019-03-18T20:14:23.130Z,2.30
2019-03-18T20:16:52.957Z,3.40
2019-03-18T20:19:25.583Z,2.97
2019-03-18T20:21:54.855Z,3.93
2019-03-18T20:24:25.003Z,2.30
2019-03-18T20:26:55.279Z,2.30
2019-03-18T20:29:25.362Z,3.27
2019-03-18T20:31:55.266Z,2.30
2019-03-18T20:34:25.213Z,4.10
2019-03-18T20:36:55.437Z,1.97
2019-03-18T20:39:25.283Z,2.00
2019-03-18T20:41:55.115Z,4.00
2019-03-18T20:44:24.908Z,2.03
2019-03-18T20:46:54.744Z,2.63
2019-03-18T20:49:23.861Z,2.90
2019-03-18T20:51:52.883Z,2.83
2019-03-18T20:54:21.819Z,4.97
2019-03-18T20:56:50.780Z,3.00
2019-03-18T20:59:19.741Z,3.73
2019-03-18T21:01:48.787Z,3.13
2019-03-18T21:04:17.862Z,3.93
2019-03-18T21:06:46.941Z,1.87
2019-03-18T21:09:15.800Z,2.60
2019-03-18T21:11:44.889Z,2.60
2019-03-18T21:14:13.933Z,2.53
2019-03-18T21:16:42.905Z,2.77
2019-03-18T21:19:11.979Z,3.83
2019-03-18T21:21:41.026Z,4.07
2019-03-18T21:24:10.086Z,3.03
2019-03-18T21:26:39.174Z,3.17
2019-03-18T21:29:08.217Z,2.50
2019-03-18T21:31:37.259Z,3.80
2019-03-18T21:34:06.310Z,2.30
2019-03-18T21:36:38.115Z,2.37
2019-03-18T21:39:09.208Z,2.87
2019-03-18T21:41:38.277Z,3.47
2019-03-18T21:44:07.371Z,3.37
2019-03-18T21:46:36.437Z,2.90
2019-03-18T21:49:05.664Z,2.70
2019-03-18T21:51:34.761Z,2.33
2019-03-18T21:54:03.812Z,2.63
2019-03-18T21:56:33.140Z,2.13
2019-03-18T21:59:03.001Z,4.00
2019-03-18T22:01:33.139Z,2.73
2019-03-18T22:04:03.292Z,4.40
2019-03-18T22:06:33.247Z,2.20
2019-03-18T22:09:02.533Z,2.50
2019-03-18T22:11:31.609Z,3.20
2019-03-18T22:14:00.653Z,2.10
2019-03-18T22:16:29.717Z,3.20
2019-03-18T22:18:58.790Z,2.30
2019-03-18T22:21:27.846Z,2.77
2019-03-18T22:23:56.921Z,3.60
2019-03-18T22:26:25.997Z,2.37
2019-03-18T22:28:55.086Z,2.80
2019-03-18T22:31:24.157Z,1.87
2019-03-18T22:33:53.437Z,2.00
2019-03-18T22:36:22.515Z,2.20
2019-03-18T22:38:51.648Z,2.23
2019-03-18T22:41:21.621Z,3.10
2019-03-18T22:43:51.881Z,3.10
2019-03-18T22:46:20.965Z,2.53
2019-03-18T22:48:50.026Z,2.77
2019-03-18T22:51:19.081Z,2.10
2019-03-18T22:53:48.142Z,4.43
2019-03-18T22:56:17.221Z,2.13
2019-03-18T22:58:46.268Z,2.07
2019-03-18T23:01:18.469Z,2.47
2019-03-18T23:03:47.593Z,1.70
2019-03-18T23:06:16.750Z,2.40
2019-03-18T23:08:45.792Z,2.60
2019-03-18T23:11:14.867Z,3.07
2019-03-18T23:13:43.921Z,2.60
2019-03-18T23:16:13.004Z,2.37
2019-03-18T23:18:43.045Z,2.40
2019-03-18T23:21:12.651Z,2.60
2019-03-18T23:23:42.621Z,2.20
2019-03-18T23:26:12.161Z,1.73
2019-03-18T23:28:41.879Z,2.03
2019-03-18T23:31:11.425Z,3.00
2019-03-18T23:33:40.540Z,2.40
2019-03-18T23:36:09.625Z,2.40
2019-03-18T23:38:40.130Z,2.00
2019-03-18T23:41:09.922Z,3.70
2019-03-18T23:43:39.009Z,2.30
2019-03-18T23:46:09.447Z,2.90
2019-03-18T23:48:39.280Z,3.57
2019-03-18T23:51:09.190Z,1.80
2019-03-18T23:53:39.035Z,2.30
2019-03-18T23:56:09.251Z,2.97
2019-03-18T23:58:38.357Z,2.40
